Time;durP1;ratioP1;P1;durP2;ratioP2;P2;SDS_P1;SDS_P2;PMS_P1;PMS_P2;Temp;Humidity;BMP_temperature;BMP_pressure;BME280_temperature;BME280_humidity;BME280_pressure;Samples;Min_cycle;Max_cycle;Signal;HPM_P1;HPM_P2
2023/09/19 00:01:33;;;;;;;20.50;10.10;;;;;;;19.97;81.12;99546.17;107751;1284;26915;-82
2023/09/19 00:04:09;;;;;;;21.30;9.90;;;;;;;19.95;81.24;99549.27;107783;1284;25780;-81
2023/09/19 00:06:40;;;;;;;19.80;9.10;;;;;;;19.91;81.65;99555.53;107877;1284;22876;-81
2023/09/19 00:09:11;;;;;;;23.20;8.60;;;;;;;19.84;81.69;99561.48;107976;1284;24592;-81
2023/09/19 00:11:42;;;;;;;19.80;7.40;;;;;;;19.77;82.02;99565.61;107845;1284;24242;-81
2023/09/19 00:14:14;;;;;;;13.90;5.30;;;;;;;19.72;82.22;99568.27;107985;1284;22583;-81
2023/09/19 00:16:46;;;;;;;13.60;4.40;;;;;;;19.68;82.47;99570.77;107910;1284;22577;-81
2023/09/19 00:19:16;;;;;;;9.80;2.20;;;;;;;19.64;82.68;99563.47;107929;1284;23283;-81
2023/09/19 00:21:47;;;;;;;10.30;2.20;;;;;;;19.59;83.08;99558.16;107726;1284;23352;-81
2023/09/19 00:24:18;;;;;;;8.30;1.60;;;;;;;19.53;83.10;99563.52;107835;1284;22947;-81
2023/09/19 00:26:49;;;;;;;11.30;1.30;;;;;;;19.51;83.31;99564.98;107652;1284;22598;-81
2023/09/19 00:29:19;;;;;;;6.50;1.10;;;;;;;19.49;83.46;99561.67;107652;1284;22609;-83
2023/09/19 00:31:50;;;;;;;7.00;0.90;;;;;;;19.46;83.76;99561.05;107618;1284;22559;-81
2023/09/19 00:34:21;;;;;;;4.70;1.20;;;;;;;19.40;83.95;99559.77;107603;1284;23320;-80
2023/09/19 00:36:54;;;;;;;8.40;1.10;;;;;;;19.35;84.21;99566.80;107717;1284;22631;-81
2023/09/19 00:39:25;;;;;;;5.70;0.80;;;;;;;19.32;84.29;99566.80;107699;1284;22831;-81
2023/09/19 00:41:56;;;;;;;8.00;0.90;;;;;;;19.29;84.72;99561.94;107833;1284;23429;-81
2023/09/19 00:44:27;;;;;;;4.40;0.80;;;;;;;19.26;85.00;99569.38;107875;1284;22565;-81
2023/09/19 00:46:58;;;;;;;11.70;1.20;;;;;;;19.22;84.94;99570.58;107808;1284;25425;-81
2023/09/19 00:49:30;;;;;;;4.10;1.20;;;;;;;19.20;85.15;99570.98;107996;1284;25499;-81
2023/09/19 00:52:01;;;;;;;5.70;0.70;;;;;;;19.19;85.56;99570.40;107878;1284;22742;-81
2023/09/19 00:54:33;;;;;;;8.10;0.90;;;;;;;19.16;85.65;99571.59;107798;1285;22608;-81
2023/09/19 00:57:05;;;;;;;5.30;0.90;;;;;;;19.13;85.94;99570.23;107673;1283;22542;-82
2023/09/19 00:59:36;;;;;;;5.50;0.90;;;;;;;19.11;85.99;99566.03;109792;1284;22908;-81
2023/09/19 01:02:07;;;;;;;5.70;0.80;;;;;;;19.11;86.15;99562.64;109828;1284;22353;-82
2023/09/19 01:04:39;;;;;;;5.90;0.70;;;;;;;19.09;86.24;99553.38;109790;1284;22194;-81
2023/09/19 01:07:10;;;;;;;4.90;0.80;;;;;;;19.07;86.42;99552.77;109779;1284;22155;-80
2023/09/19 01:09:42;;;;;;;5.20;0.70;;;;;;;19.03;86.61;99550.95;107589;1284;22942;-80
2023/09/19 01:12:18;;;;;;;3.80;0.70;;;;;;;18.98;86.96;99550.27;107080;1284;22599;-81
2023/09/19 01:14:58;;;;;;;8.70;0.70;;;;;;;18.93;87.03;99555.14;107785;1283;22735;-81
2023/09/19 01:17:29;;;;;;;;;;;;;;;18.88;87.21;99555.40;107843;1284;23415;-81
2023/09/19 01:20:20;;;;;;;4.00;0.80;;;;;;;18.84;87.41;99557.98;109830;1284;22213;-80
2023/09/19 01:23:03;;;;;;;9.60;0.70;;;;;;;18.82;87.52;99555.76;109822;1284;22334;-81
2023/09/19 01:26:05;;;;;;;4.10;0.70;;;;;;;18.80;87.37;99549.34;109802;1284;22960;-81
2023/09/19 01:28:55;;;;;;;4.60;0.70;;;;;;;18.82;87.39;99544.41;109780;1284;22271;-82
2023/09/19 01:31:25;;;;;;;;;;;;;;;18.84;87.59;99553.98;109792;1282;22364;-81
2023/09/19 01:34:04;;;;;;;3.90;0.60;;;;;;;18.81;87.92;99553.13;109774;1277;22843;-82
2023/09/19 01:36:38;;;;;;;3.70;0.70;;;;;;;18.79;87.94;99555.59;109795;1284;22201;-84
2023/09/19 01:39:13;;;;;;;4.70;0.70;;;;;;;18.77;88.25;99554.21;108698;1284;23271;-81
2023/09/19 01:42:00;;;;;;;6.30;0.80;;;;;;;18.74;88.27;99548.83;106954;1283;22532;-80
2023/09/19 01:44:45;;;;;;;6.00;1.10;;;;;;;18.72;88.54;99540.23;109811;1284;22299;-84
2023/09/19 01:47:27;;;;;;;6.30;0.70;;;;;;;18.69;88.75;99549.69;109792;1284;22167;-80
2023/09/19 01:50:13;;;;;;;3.00;0.70;;;;;;;18.68;88.67;99545.99;109784;1284;22198;-81
2023/09/19 01:52:50;;;;;;;4.70;0.70;;;;;;;18.71;88.87;99549.26;109797;1284;22364;-81
2023/09/19 01:55:22;;;;;;;6.70;0.80;;;;;;;18.72;89.39;99551.60;109807;1284;22199;-83
2023/09/19 01:58:01;;;;;;;3.20;0.60;;;;;;;18.72;89.49;99553.41;109789;1284;22327;-82
2023/09/19 02:00:33;;;;;;;4.10;0.50;;;;;;;18.73;89.82;99554.56;109830;1280;22133;-81
2023/09/19 02:03:06;;;;;;;5.00;1.10;;;;;;;18.74;89.99;99557.05;109793;1284;22167;-80
2023/09/19 02:05:37;;;;;;;6.40;0.80;;;;;;;18.73;90.06;99553.58;109800;1284;22220;-80
2023/09/19 02:08:08;;;;;;;7.90;0.60;;;;;;;18.73;90.44;99554.67;109781;1284;22168;-80
2023/09/19 02:10:40;;;;;;;5.30;0.70;;;;;;;18.72;90.48;99551.72;109780;1284;22161;-81
2023/09/19 02:13:10;;;;;;;5.40;0.80;;;;;;;18.70;90.80;99548.73;109793;1284;22170;-80
2023/09/19 02:15:41;;;;;;;10.60;0.70;;;;;;;18.65;91.02;99545.10;109777;1284;22158;-81
2023/09/19 02:18:12;;;;;;;4.10;0.70;;;;;;;18.61;91.38;99541.52;107002;1274;22550;-80
2023/09/19 02:20:43;;;;;;;3.00;0.60;;;;;;;18.56;91.64;99547.13;106672;1284;22541;-79
2023/09/19 02:23:17;;;;;;;5.20;0.60;;;;;;;18.50;91.88;99548.73;106730;1284;22545;-79
2023/09/19 02:25:58;;;;;;;4.50;0.90;;;;;;;18.50;92.02;99550.91;106830;1281;22558;-79
2023/09/19 02:28:29;;;;;;;4.30;0.70;;;;;;;18.51;92.15;99556.39;106851;1273;22563;-79
2023/09/19 02:31:00;;;;;;;3.60;0.60;;;;;;;18.52;92.26;99561.96;109781;1284;22793;-79
2023/09/19 02:33:32;;;;;;;6.90;0.90;;;;;;;18.52;92.54;99569.81;109803;1276;22585;-82
2023/09/19 02:36:05;;;;;;;4.30;0.60;;;;;;;18.53;92.63;99576.08;109776;1284;22172;-80
2023/09/19 02:38:37;;;;;;;6.10;0.80;;;;;;;18.53;92.82;99572.05;109814;1284;22149;-80
2023/09/19 02:41:08;;;;;;;3.70;0.70;;;;;;;18.56;93.00;99576.86;109800;1282;22861;-82
2023/09/19 02:43:38;;;;;;;5.70;0.80;;;;;;;18.59;93.07;99573.92;109794;1277;22414;-80
2023/09/19 02:46:12;;;;;;;3.40;0.60;;;;;;;18.61;93.16;99565.77;109596;1284;22544;-79
2023/09/19 02:48:43;;;;;;;5.10;0.50;;;;;;;18.59;93.22;99555.67;106733;1284;22553;-79
2023/09/19 02:51:14;;;;;;;5.30;0.70;;;;;;;18.57;93.32;99547.39;106775;1284;25483;-79
2023/09/19 02:53:47;;;;;;;5.30;0.70;;;;;;;18.57;93.40;99536.45;106765;1283;22548;-79
2023/09/19 02:56:18;;;;;;;6.10;0.70;;;;;;;18.56;93.48;99527.83;106864;1284;24231;-80
2023/09/19 02:58:49;;;;;;;6.20;0.90;;;;;;;18.58;93.75;99524.87;106866;1284;22520;-78
2023/09/19 03:01:20;;;;;;;7.20;0.90;;;;;;;18.59;93.83;99519.85;106813;1284;23429;-79
2023/09/19 03:03:51;;;;;;;6.30;0.80;;;;;;;18.59;93.89;99516.35;106840;1284;27089;-79
2023/09/19 03:06:22;;;;;;;9.60;1.10;;;;;;;18.59;93.73;99515.11;106781;1284;22559;-78
2023/09/19 03:08:52;;;;;;;6.30;0.90;;;;;;;18.62;93.87;99518.30;106808;1284;22537;-77
2023/09/19 03:11:23;;;;;;;4.50;0.80;;;;;;;18.62;94.09;99522.56;106654;1277;22585;-78
2023/09/19 03:13:55;;;;;;;5.10;0.70;;;;;;;18.60;94.04;99526.89;106476;1279;24255;-79
2023/09/19 03:16:26;;;;;;;6.10;0.90;;;;;;;18.59;94.30;99530.08;106657;1284;22550;-81
2023/09/19 03:18:58;;;;;;;8.90;0.80;;;;;;;18.58;94.19;99531.27;106692;1277;25325;-78
2023/09/19 03:21:29;;;;;;;3.00;0.60;;;;;;;18.58;94.28;99531.98;106704;1284;22550;-78
2023/09/19 03:24:00;;;;;;;9.20;0.90;;;;;;;18.58;94.47;99535.05;106769;1284;22520;-78
2023/09/19 03:26:30;;;;;;;8.20;1.00;;;;;;;18.56;94.52;99531.03;106832;1283;23509;-78
2023/09/19 03:29:06;;;;;;;3.80;0.80;;;;;;;18.52;94.62;99530.61;106861;1276;25457;-79
2023/09/19 03:31:37;;;;;;;4.80;0.80;;;;;;;18.49;94.73;99532.52;106825;1284;25712;-78
2023/09/19 03:34:08;;;;;;;7.20;1.00;;;;;;;18.49;94.95;99532.78;106731;1280;22562;-79
2023/09/19 03:36:40;;;;;;;5.90;0.90;;;;;;;18.46;94.94;99531.02;106828;1284;25321;-77
2023/09/19 03:39:11;;;;;;;7.30;0.90;;;;;;;18.45;95.06;99531.45;106741;1284;22527;-81
2023/09/19 03:41:42;;;;;;;5.10;1.10;;;;;;;18.44;95.30;99536.15;106715;1276;22565;-77
2023/09/19 03:44:13;;;;;;;7.60;0.90;;;;;;;18.42;95.38;99539.71;106906;1283;22556;-78
2023/09/19 03:46:44;;;;;;;5.90;1.00;;;;;;;18.40;95.48;99542.53;107109;1284;22537;-78
2023/09/19 03:49:15;;;;;;;6.60;1.10;;;;;;;18.39;95.46;99541.95;108038;1284;22569;-80
2023/09/19 03:51:46;;;;;;;8.70;1.20;;;;;;;18.37;95.53;99547.43;108395;1284;24246;-79
2023/09/19 03:54:19;;;;;;;7.60;1.00;;;;;;;18.35;95.68;99548.50;107503;1280;24049;-79
2023/09/19 03:56:50;;;;;;;6.50;0.90;;;;;;;18.32;95.88;99548.89;106991;1284;22549;-79
2023/09/19 03:59:21;;;;;;;5.10;0.90;;;;;;;18.31;95.81;99549.33;107056;1280;24266;-77
2023/09/19 04:01:55;;;;;;;9.10;0.90;;;;;;;18.30;96.03;99541.86;106754;1280;23420;-77
2023/09/19 04:04:26;;;;;;;6.50;0.90;;;;;;;18.29;96.15;99539.89;106740;1276;25517;-78
2023/09/19 04:06:57;;;;;;;9.70;1.00;;;;;;;18.28;96.27;99536.57;106780;1279;22603;-79
2023/09/19 04:09:28;;;;;;;5.30;1.10;;;;;;;18.26;96.34;99539.52;106810;1277;22564;-78
2023/09/19 04:11:59;;;;;;;7.30;1.10;;;;;;;18.23;96.51;99545.41;106788;1278;23510;-78
2023/09/19 04:14:32;;;;;;;5.70;1.00;;;;;;;18.19;96.67;99546.56;106678;1277;24222;-80
2023/09/19 04:17:05;;;;;;;6.20;1.00;;;;;;;18.18;96.84;99541.73;106837;1277;22556;-80
2023/09/19 04:19:35;;;;;;;7.20;1.10;;;;;;;18.17;96.96;99543.45;106905;1277;22558;-80
2023/09/19 04:22:07;;;;;;;6.80;0.90;;;;;;;18.16;97.00;99548.30;106692;1276;25094;-78
2023/09/19 04:24:37;;;;;;;7.80;1.00;;;;;;;18.15;97.16;99549.95;106733;1274;22597;-78
2023/09/19 04:27:09;;;;;;;7.00;1.10;;;;;;;18.16;97.13;99541.22;106716;1284;22669;-79
2023/09/19 04:29:41;;;;;;;9.30;1.50;;;;;;;18.15;97.16;99546.09;106714;1280;22556;-79
2023/09/19 04:32:13;;;;;;;6.20;1.00;;;;;;;18.14;97.21;99545.45;106804;1277;22698;-76
2023/09/19 04:34:43;;;;;;;4.70;1.00;;;;;;;18.14;97.36;99541.09;106775;1281;25300;-81
2023/09/19 04:37:15;;;;;;;6.30;1.10;;;;;;;18.14;97.28;99541.00;106859;1277;22962;-77
2023/09/19 04:39:46;;;;;;;6.60;1.30;;;;;;;18.14;97.28;99541.62;106790;1284;22533;-79
2023/09/19 04:42:18;;;;;;;9.70;1.50;;;;;;;18.13;97.39;99539.01;106746;1278;22530;-78
2023/09/19 04:44:50;;;;;;;6.90;1.10;;;;;;;18.13;97.53;99543.64;106667;1277;25510;-78
2023/09/19 04:47:21;;;;;;;9.40;1.30;;;;;;;18.12;97.61;99540.83;106716;1280;22714;-77
2023/09/19 04:49:52;;;;;;;11.70;1.40;;;;;;;18.10;97.71;99551.52;106932;1277;25368;-76
2023/09/19 04:52:22;;;;;;;5.90;1.10;;;;;;;18.09;97.70;99554.20;106862;1264;22533;-77
2023/09/19 04:54:53;;;;;;;8.10;1.50;;;;;;;18.07;97.85;99558.21;106863;1277;22536;-77
2023/09/19 04:57:25;;;;;;;7.50;2.00;;;;;;;18.04;97.81;99553.02;107143;1273;22559;-77
2023/09/19 04:59:57;;;;;;;10.40;2.00;;;;;;;18.02;97.92;99558.30;106873;1277;25458;-79
2023/09/19 05:02:30;;;;;;;9.00;1.90;;;;;;;17.99;98.11;99560.68;106939;1278;22895;-79
2023/09/19 05:05:01;;;;;;;9.40;1.60;;;;;;;17.98;98.10;99560.92;106839;1280;25483;-78
2023/09/19 05:07:34;;;;;;;9.20;1.10;;;;;;;17.97;98.30;99561.66;106742;1277;22547;-79
2023/09/19 05:10:06;;;;;;;11.30;1.60;;;;;;;17.96;98.29;99561.28;106766;1277;24273;-77
2023/09/19 05:12:37;;;;;;;7.90;1.50;;;;;;;17.95;98.33;99565.64;109717;1270;22896;-80
2023/09/19 05:15:09;;;;;;;11.00;2.10;;;;;;;17.96;98.41;99563.58;109765;1284;22316;-81
2023/09/19 05:17:40;;;;;;;8.10;1.40;;;;;;;17.96;98.46;99564.86;109721;1276;23021;-80
2023/09/19 05:20:14;;;;;;;9.60;1.50;;;;;;;17.96;98.53;99565.27;109785;1278;23461;-80
2023/09/19 05:22:46;;;;;;;7.50;1.40;;;;;;;17.97;98.44;99571.57;109752;1284;22538;-78
2023/09/19 05:25:18;;;;;;;11.00;1.70;;;;;;;17.99;98.61;99569.79;109756;1277;22336;-77
2023/09/19 05:27:51;;;;;;;8.30;1.40;;;;;;;18.00;98.69;99573.20;109732;1278;22486;-78
2023/09/19 05:30:22;;;;;;;10.70;1.50;;;;;;;18.01;98.79;99574.67;109771;1277;22199;-78
2023/09/19 05:32:52;;;;;;;11.10;1.80;;;;;;;18.00;98.92;99569.95;109790;1277;22168;-79
2023/09/19 05:35:23;;;;;;;10.30;1.60;;;;;;;18.00;98.95;99577.40;109727;1276;22373;-81
2023/09/19 05:37:55;;;;;;;6.80;1.40;;;;;;;17.99;98.88;99578.61;109751;1276;22169;-78
2023/09/19 05:40:27;;;;;;;10.10;1.80;;;;;;;17.99;98.99;99588.88;109707;1277;22542;-80
2023/09/19 05:42:58;;;;;;;9.10;1.70;;;;;;;17.99;99.00;99597.91;109726;1284;22339;-78
2023/09/19 05:45:31;;;;;;;10.00;1.90;;;;;;;17.97;98.94;99594.31;109743;1277;23509;-80
2023/09/19 05:48:11;;;;;;;10.00;1.40;;;;;;;17.98;99.09;99588.04;109681;1277;22464;-78
2023/09/19 05:50:42;;;;;;;10.60;1.90;;;;;;;17.98;98.90;99591.48;109791;1284;22653;-81
2023/09/19 05:53:14;;;;;;;12.10;1.40;;;;;;;17.99;99.12;99604.95;109747;1284;23006;-80
2023/09/19 05:55:45;;;;;;;8.80;1.40;;;;;;;17.98;99.03;99607.39;109706;1276;23145;-80
2023/09/19 05:58:17;;;;;;;10.00;1.40;;;;;;;17.97;99.17;99616.61;109749;1277;22676;-78
2023/09/19 06:00:49;;;;;;;11.50;1.70;;;;;;;17.96;99.20;99622.99;109764;1280;22260;-80
2023/09/19 06:03:20;;;;;;;14.50;2.00;;;;;;;17.94;99.36;99623.49;109771;1277;22292;-79
2023/09/19 06:05:57;;;;;;;7.30;1.60;;;;;;;17.95;99.56;99626.15;109743;1276;22231;-79
2023/09/19 06:08:28;;;;;;;13.00;3.30;;;;;;;17.95;99.88;99621.52;109790;1280;23049;-79
2023/09/19 06:10:59;;;;;;;8.50;1.80;;;;;;;17.97;99.99;99620.56;109737;1277;22297;-78
2023/09/19 06:13:33;;;;;;;9.70;2.00;;;;;;;17.98;100.00;99623.89;109763;1277;23131;-77
2023/09/19 06:16:05;;;;;;;9.30;1.30;;;;;;;18.01;100.00;99622.53;109711;1277;22210;-78
2023/09/19 06:18:36;;;;;;;7.20;1.10;;;;;;;18.02;100.00;99624.40;109760;1277;22306;-78
2023/09/19 06:21:07;;;;;;;8.70;1.30;;;;;;;18.04;100.00;99621.91;109738;1276;22256;-79
2023/09/19 06:23:38;;;;;;;9.20;1.80;;;;;;;18.05;100.00;99624.70;109701;1278;22333;-77
2023/09/19 06:26:09;;;;;;;8.40;1.30;;;;;;;18.06;100.00;99627.10;109675;1268;22335;-78
2023/09/19 06:28:39;;;;;;;7.10;1.00;;;;;;;18.08;100.00;99630.35;109787;1270;22183;-77
2023/09/19 06:31:10;;;;;;;9.30;1.60;;;;;;;18.09;100.00;99633.30;109733;1277;22937;-78
2023/09/19 06:33:43;;;;;;;4.40;0.90;;;;;;;18.11;100.00;99637.98;109744;1284;22157;-82
2023/09/19 06:36:13;;;;;;;4.50;1.00;;;;;;;18.13;100.00;99641.26;109760;1279;22168;-79
2023/09/19 06:38:44;;;;;;;5.20;0.90;;;;;;;18.13;100.00;99638.13;109771;1277;22164;-78
2023/09/19 06:41:17;;;;;;;8.40;1.50;;;;;;;18.15;100.00;99644.22;109780;1277;22523;-79
2023/09/19 06:43:47;;;;;;;7.50;1.00;;;;;;;18.18;100.00;99650.77;109762;1280;23149;-78
2023/09/19 06:46:18;;;;;;;8.80;1.00;;;;;;;18.22;100.00;99655.88;109773;1284;22211;-78
2023/09/19 06:48:49;;;;;;;10.50;1.30;;;;;;;18.25;100.00;99654.83;109794;1284;22265;-79
2023/09/19 06:51:20;;;;;;;7.20;1.00;;;;;;;18.27;100.00;99657.30;109768;1280;22339;-77
2023/09/19 06:53:54;;;;;;;8.20;0.90;;;;;;;18.30;100.00;99661.60;109797;1280;22832;-82
2023/09/19 06:56:25;;;;;;;7.80;1.00;;;;;;;18.33;100.00;99665.02;109790;1277;22151;-78
2023/09/19 06:58:56;;;;;;;10.90;1.60;;;;;;;18.36;99.88;99668.45;109796;1280;22564;-78
2023/09/19 07:01:27;;;;;;;4.10;0.90;;;;;;;18.40;99.56;99672.84;109769;1284;22156;-78
2023/09/19 07:03:57;;;;;;;6.70;1.00;;;;;;;18.44;98.86;99673.39;109801;1284;22473;-78
2023/09/19 07:06:28;;;;;;;3.50;0.80;;;;;;;18.48;98.45;99673.22;107473;1284;23383;-78
2023/09/19 07:09:00;;;;;;;6.40;0.90;;;;;;;18.55;98.43;99681.70;106790;1273;22545;-77
2023/09/19 07:11:31;;;;;;;5.30;0.70;;;;;;;18.62;97.84;99683.86;106960;1284;22670;-78
2023/09/19 07:14:03;;;;;;;5.10;0.80;;;;;;;18.69;97.45;99691.10;106895;1284;22591;-78
2023/09/19 07:16:34;;;;;;;5.70;0.70;;;;;;;18.77;97.22;99697.14;106906;1284;22550;-79
2023/09/19 07:19:04;;;;;;;6.10;0.80;;;;;;;18.84;96.72;99695.65;106774;1260;22556;-77
2023/09/19 07:21:35;;;;;;;8.50;1.00;;;;;;;18.91;96.48;99700.35;106822;1284;22537;-77
2023/09/19 07:24:08;;;;;;;7.00;0.70;;;;;;;18.95;96.07;99701.09;106915;1283;22558;-77
2023/09/19 07:26:39;;;;;;;4.30;0.70;;;;;;;18.99;96.09;99699.23;106889;1283;22533;-77
2023/09/19 07:29:10;;;;;;;4.60;0.80;;;;;;;19.04;95.46;99701.80;106649;1284;22747;-77
2023/09/19 07:31:41;;;;;;;6.00;0.90;;;;;;;19.08;95.70;99704.79;106683;1284;24297;-77
2023/09/19 07:34:13;;;;;;;4.20;0.70;;;;;;;19.13;94.60;99707.90;106699;1277;24200;-79
2023/09/19 07:36:44;;;;;;;4.70;1.10;;;;;;;19.18;94.85;99705.72;106589;1284;26566;-78
2023/09/19 07:39:15;;;;;;;6.20;0.80;;;;;;;19.22;94.56;99713.95;106767;1284;22569;-77
2023/09/19 07:41:46;;;;;;;7.10;0.80;;;;;;;19.24;93.93;99716.27;106782;1284;22556;-78
2023/09/19 07:44:17;;;;;;;9.80;0.90;;;;;;;19.25;93.34;99716.31;106855;1284;24034;-77
2023/09/19 07:46:50;;;;;;;5.70;0.70;;;;;;;19.23;92.52;99717.27;106993;1284;22554;-77
2023/09/19 07:49:21;;;;;;;6.00;0.70;;;;;;;19.22;92.50;99717.30;107104;1284;22536;-77
2023/09/19 07:51:53;;;;;;;3.40;0.80;;;;;;;19.22;92.39;99720.16;107453;1284;23183;-81
2023/09/19 07:54:24;;;;;;;6.40;1.20;;;;;;;19.24;92.34;99723.59;107822;1284;22467;-79
2023/09/19 07:56:56;;;;;;;6.00;1.00;;;;;;;19.27;92.52;99729.05;107382;1284;24233;-78
2023/09/19 07:59:26;;;;;;;3.40;0.70;;;;;;;19.32;91.89;99730.79;106890;1284;22944;-78
2023/09/19 08:01:57;;;;;;;6.30;0.70;;;;;;;19.37;91.25;99731.63;106780;1284;22532;-79
2023/09/19 08:04:28;;;;;;;4.70;0.80;;;;;;;19.42;90.80;99734.70;106769;1284;25329;-77
2023/09/19 08:07:00;;;;;;;3.40;0.70;;;;;;;19.48;90.44;99739.38;106625;1279;22715;-79
2023/09/19 08:09:33;;;;;;;3.60;0.70;;;;;;;19.52;90.35;99743.04;106623;1284;23047;-77
2023/09/19 08:12:04;;;;;;;7.10;0.80;;;;;;;19.57;90.17;99747.08;106726;1284;25353;-78
2023/09/19 08:14:36;;;;;;;7.50;0.90;;;;;;;19.61;90.00;99749.09;106724;1284;26573;-77
2023/09/19 08:17:07;;;;;;;5.60;0.80;;;;;;;19.62;89.38;99752.91;106845;1284;22669;-80
2023/09/19 08:19:40;;;;;;;3.10;0.60;;;;;;;19.63;88.82;99754.61;106882;1284;24215;-77
2023/09/19 08:22:11;;;;;;;2.90;0.60;;;;;;;19.63;89.14;99756.73;106883;1284;25325;-78
2023/09/19 08:24:42;;;;;;;7.20;0.80;;;;;;;19.62;88.01;99754.31;106808;1284;23006;-79
2023/09/19 08:27:13;;;;;;;3.80;0.50;;;;;;;19.60;87.66;99760.17;106843;1284;25405;-79
2023/09/19 08:29:45;;;;;;;3.20;0.60;;;;;;;19.59;87.51;99762.70;106877;1284;23290;-78
2023/09/19 08:32:15;;;;;;;5.10;0.80;;;;;;;19.58;87.56;99762.77;106905;1283;22570;-77
2023/09/19 08:34:46;;;;;;;3.00;0.50;;;;;;;19.56;86.95;99769.05;106756;1284;22579;-77
2023/09/19 08:37:18;;;;;;;4.30;0.60;;;;;;;19.53;86.79;99768.95;106828;1284;22657;-79
2023/09/19 08:39:49;;;;;;;6.90;0.90;;;;;;;19.51;86.51;99771.69;106703;1283;23582;-77
2023/09/19 08:42:21;;;;;;;2.50;0.60;;;;;;;19.50;86.67;99771.45;106685;1283;25422;-77
2023/09/19 08:44:51;;;;;;;6.60;0.70;;;;;;;19.51;86.67;99772.30;106557;1284;22673;-78
2023/09/19 08:47:30;;;;;;;3.00;0.70;;;;;;;19.53;86.58;99778.80;106697;1284;22554;-77
2023/09/19 08:50:11;;;;;;;3.60;0.70;;;;;;;19.54;86.21;99780.52;106769;1284;22549;-77
2023/09/19 08:52:44;;;;;;;3.20;0.60;;;;;;;19.58;86.15;99779.45;106805;1283;22560;-77
2023/09/19 08:55:20;;;;;;;5.50;0.80;;;;;;;19.60;86.03;99777.44;106854;1283;22575;-77
2023/09/19 08:57:53;;;;;;;2.70;0.80;;;;;;;19.64;85.99;99781.92;106852;1284;25461;-78
2023/09/19 09:00:27;;;;;;;4.80;0.70;;;;;;;19.68;86.01;99786.61;106886;1283;24271;-77
2023/09/19 09:03:00;;;;;;;3.10;0.80;;;;;;;19.71;85.30;99785.61;109828;1284;22997;-77
2023/09/19 09:05:32;;;;;;;5.00;0.90;;;;;;;19.70;84.98;99786.70;109772;1284;22187;-77
2023/09/19 09:08:06;;;;;;;6.80;0.80;;;;;;;19.70;84.90;99787.23;109789;1284;22409;-77
2023/09/19 09:10:40;;;;;;;5.10;0.70;;;;;;;19.69;84.73;99794.40;109828;1284;23055;-78
2023/09/19 09:13:14;;;;;;;2.70;0.80;;;;;;;19.69;84.31;99796.20;109819;1284;22163;-77
2023/09/19 09:15:45;;;;;;;8.00;0.70;;;;;;;19.70;84.76;99803.91;109810;1284;22268;-78
2023/09/19 09:18:17;;;;;;;2.50;0.60;;;;;;;19.71;84.05;99808.98;109813;1284;22166;-77
2023/09/19 09:20:48;;;;;;;4.80;0.70;;;;;;;19.72;84.06;99810.35;109809;1284;22154;-79
2023/09/19 09:23:19;;;;;;;5.60;0.70;;;;;;;19.74;83.67;99813.09;109805;1283;22907;-77
2023/09/19 09:25:59;;;;;;;2.70;0.50;;;;;;;19.77;83.74;99811.30;109827;1283;22872;-78
2023/09/19 09:28:33;;;;;;;2.50;0.70;;;;;;;19.85;83.99;99817.34;109830;1284;22948;-78
2023/09/19 09:31:08;;;;;;;5.60;0.60;;;;;;;19.92;83.54;99823.70;109784;1284;23541;-78
2023/09/19 09:33:39;;;;;;;3.00;0.50;;;;;;;19.97;83.33;99827.56;109795;1277;22169;-77
2023/09/19 09:36:13;;;;;;;4.40;0.90;;;;;;;20.01;83.11;99831.34;109816;1273;23011;-78
2023/09/19 09:38:48;;;;;;;4.30;0.80;;;;;;;20.07;82.89;99830.51;109803;1284;22851;-77
2023/09/19 09:41:27;;;;;;;5.40;0.50;;;;;;;20.12;82.94;99835.58;109826;1284;22178;-78
2023/09/19 09:44:13;;;;;;;4.60;0.70;;;;;;;20.20;82.91;99841.44;109793;1277;22252;-81
2023/09/19 09:47:27;;;;;;;5.40;0.70;;;;;;;20.26;82.18;99844.27;109817;1284;22999;-78
2023/09/19 09:50:06;;;;;;;4.60;0.80;;;;;;;20.34;82.08;99848.44;109763;1284;22172;-78
2023/09/19 09:52:48;;;;;;;2.60;0.60;;;;;;;20.41;81.60;99840.55;109777;1284;22176;-78
2023/09/19 09:55:20;;;;;;;5.40;0.60;;;;;;;20.49;81.20;99840.08;109774;1283;22183;-78
2023/09/19 09:58:18;;;;;;;4.50;0.60;;;;;;;20.57;81.06;99841.36;109830;1284;22194;-77
2023/09/19 10:01:01;;;;;;;3.60;0.80;;;;;;;20.62;80.38;99840.21;109805;1277;22193;-78
2023/09/19 10:03:40;;;;;;;5.10;0.60;;;;;;;20.63;79.93;99843.87;109783;1273;22198;-78
2023/09/19 10:06:30;;;;;;;3.10;0.60;;;;;;;20.66;80.20;99842.48;109796;1284;22197;-78
2023/09/19 10:09:10;;;;;;;2.90;0.50;;;;;;;20.70;79.47;99851.60;109679;1284;22239;-77
2023/09/19 10:11:44;;;;;;;3.90;0.50;;;;;;;20.70;79.53;99851.09;109819;1283;22185;-78
2023/09/19 10:14:19;;;;;;;4.30;0.50;;;;;;;20.72;79.36;99853.45;109807;1284;22202;-77
2023/09/19 10:16:50;;;;;;;3.40;0.80;;;;;;;20.74;78.91;99859.16;109790;1284;22550;-78
2023/09/19 10:19:33;;;;;;;3.80;0.60;;;;;;;20.78;78.84;99864.98;109063;1273;22696;-77
2023/09/19 10:22:09;;;;;;;4.30;0.50;;;;;;;20.80;78.53;99866.98;106794;1283;24313;-77
2023/09/19 10:24:41;;;;;;;5.10;0.70;;;;;;;20.80;78.12;99867.14;109776;1276;22882;-78
2023/09/19 10:27:12;;;;;;;5.00;0.50;;;;;;;20.77;77.82;99867.08;109805;1277;22633;-78
2023/09/19 10:29:47;;;;;;;3.20;0.60;;;;;;;20.75;78.22;99868.63;109782;1284;22850;-77
2023/09/19 10:32:19;;;;;;;3.20;0.60;;;;;;;20.76;78.28;99866.88;109744;1283;22179;-78
2023/09/19 10:34:55;;;;;;;3.40;0.60;;;;;;;20.80;78.21;99867.81;109806;1280;22181;-78
2023/09/19 10:37:28;;;;;;;5.60;0.70;;;;;;;20.82;78.00;99870.96;109841;1261;22292;-78
2023/09/19 10:39:59;;;;;;;2.20;0.50;;;;;;;20.82;77.90;99872.19;109789;1284;23277;-79
2023/09/19 10:42:32;;;;;;;2.60;0.60;;;;;;;20.81;77.32;99879.66;109797;1278;22226;-78
2023/09/19 10:45:07;;;;;;;4.10;0.40;;;;;;;20.77;76.95;99876.93;109776;1283;22194;-80
2023/09/19 10:47:38;;;;;;;2.70;0.50;;;;;;;20.73;76.16;99879.05;107185;1284;22930;-78
2023/09/19 10:50:21;;;;;;;6.60;0.60;;;;;;;20.66;75.89;99886.77;106776;1284;22553;-80
2023/09/19 10:52:58;;;;;;;2.80;0.60;;;;;;;20.61;75.88;99885.33;109796;1277;22163;-80
2023/09/19 10:55:32;;;;;;;2.10;0.50;;;;;;;20.59;76.08;99883.61;107402;1284;25257;-78
2023/09/19 10:58:10;;;;;;;3.30;0.70;;;;;;;20.60;76.33;99889.83;106584;1284;25368;-79
2023/09/19 11:00:56;;;;;;;2.40;0.60;;;;;;;20.63;76.36;99886.30;109630;1283;22527;-81
2023/09/19 11:03:30;;;;;;;2.40;0.50;;;;;;;20.68;76.48;99888.64;109809;1284;22254;-80
2023/09/19 11:06:09;;;;;;;3.20;0.70;;;;;;;20.75;75.55;99883.08;109800;1277;22400;-79
2023/09/19 11:09:22;;;;;;;5.40;0.50;;;;;;;20.83;73.65;99882.30;109698;1283;22647;-78
2023/09/19 11:11:57;;;;;;;2.70;0.60;;;;;;;20.93;73.33;99880.80;106474;1283;22601;-78
2023/09/19 11:14:40;;;;;;;3.60;0.70;;;;;;;21.08;72.51;99881.42;106498;1282;22883;-79
2023/09/19 11:17:46;;;;;;;4.40;0.50;;;;;;;21.21;71.30;99886.10;109439;1289;22188;-80
2023/09/19 11:20:35;;;;;;;2.50;0.50;;;;;;;21.28;67.76;99889.72;109396;1286;22205;-79
2023/09/19 11:23:26;;;;;;;4.00;0.50;;;;;;;21.30;67.88;99889.20;109393;1288;22080;-79
2023/09/19 11:25:57;;;;;;;1.80;0.40;;;;;;;21.29;66.99;99893.81;109378;1283;22235;-78
2023/09/19 11:28:38;;;;;;;2.40;0.40;;;;;;;21.26;67.51;99899.82;109401;1288;22595;-78
2023/09/19 11:31:55;;;;;;;3.00;0.40;;;;;;;21.25;67.53;99893.71;109465;1283;23050;-78
2023/09/19 11:34:50;;;;;;;3.50;0.50;;;;;;;21.22;67.27;99887.59;109477;1288;22995;-78
2023/09/19 11:38:08;;;;;;;3.60;0.60;;;;;;;21.20;67.06;99891.28;109063;1286;22217;-79
2023/09/19 11:40:39;;;;;;;2.50;0.50;;;;;;;21.24;66.19;99887.33;109019;1292;22313;-81
2023/09/19 11:43:35;;;;;;;1.70;0.30;;;;;;;21.28;67.10;99884.76;109069;1292;22258;-79
2023/09/19 11:46:10;;;;;;;3.70;0.40;;;;;;;21.31;66.05;99886.55;109032;1292;22779;-81
2023/09/19 11:48:45;;;;;;;4.60;0.50;;;;;;;21.30;65.53;99887.58;109206;1287;22246;-79
2023/09/19 11:51:23;;;;;;;3.80;0.40;;;;;;;21.32;65.86;99880.66;109558;1280;22234;-81
2023/09/19 11:53:55;;;;;;;2.00;0.40;;;;;;;21.34;65.17;99888.18;109619;1286;22205;-80
2023/09/19 11:56:28;;;;;;;2.00;0.30;;;;;;;21.33;63.60;99890.48;109587;1287;22365;-80